createdAt,value
2023-04-25T00:00:17.805Z,11.40
2023-04-25T00:02:44.553Z,11.50
2023-04-25T00:05:12.031Z,11.40
2023-04-25T00:07:39.391Z,11.30
2023-04-25T00:10:06.736Z,11.30
2023-04-25T00:12:34.579Z,11.30
2023-04-25T00:15:01.284Z,11.30
2023-04-25T00:17:28.105Z,11.30
2023-04-25T00:19:54.911Z,11.30
2023-04-25T00:22:21.728Z,11.30
2023-04-25T00:24:48.486Z,11.30
2023-04-25T00:27:15.149Z,11.30
2023-04-25T00:29:41.755Z,11.40
2023-04-25T00:32:08.489Z,11.40
2023-04-25T00:34:35.289Z,11.40
2023-04-25T00:37:04.647Z,11.50
2023-04-25T00:39:31.339Z,11.40
2023-04-25T00:41:58.600Z,11.30
2023-04-25T00:44:27.604Z,11.40
2023-04-25T00:46:55.406Z,11.30
2023-04-25T00:49:22.159Z,11.30
2023-04-25T00:51:49.258Z,11.30
2023-04-25T00:54:16.557Z,11.20
2023-04-25T00:56:43.707Z,11.20
2023-04-25T00:59:11.023Z,11.20
2023-04-25T01:01:38.999Z,11.30
2023-04-25T01:04:05.889Z,11.30
2023-04-25T01:06:32.913Z,11.20
2023-04-25T01:09:00.599Z,11.30
2023-04-25T01:11:27.351Z,11.30
2023-04-25T01:13:53.967Z,11.20
2023-04-25T01:16:21.229Z,11.20
2023-04-25T01:18:49.058Z,11.20
2023-04-25T01:21:15.790Z,11.20
2023-04-25T01:23:43.011Z,11.10
2023-04-25T01:26:11.502Z,11.00
2023-04-25T01:28:41.982Z,11.00
2023-04-25T01:31:08.762Z,11.10
2023-04-25T01:33:35.647Z,11.00
2023-04-25T01:36:02.374Z,11.00
2023-04-25T01:38:29.089Z,10.90
2023-04-25T01:40:56.241Z,10.90
2023-04-25T01:43:23.054Z,10.90
2023-04-25T01:45:51.143Z,10.90
2023-04-25T01:48:17.871Z,10.90
2023-04-25T01:50:45.645Z,10.90
2023-04-25T01:53:14.380Z,10.90
2023-04-25T01:55:41.012Z,10.80
2023-04-25T01:58:10.803Z,10.80
2023-04-25T02:00:41.644Z,10.80
2023-04-25T02:03:09.321Z,10.80
2023-04-25T02:05:37.650Z,10.90
2023-04-25T02:08:07.140Z,10.80
2023-04-25T02:10:34.959Z,10.80
2023-04-25T02:13:02.105Z,10.80
2023-04-25T02:15:28.736Z,10.80
2023-04-25T02:17:55.311Z,10.80
2023-04-25T02:20:22.784Z,10.90
2023-04-25T02:22:49.703Z,10.80
2023-04-25T02:25:17.040Z,10.80
2023-04-25T02:27:44.223Z,10.80
2023-04-25T02:30:11.162Z,10.80
2023-04-25T02:32:38.099Z,10.70
2023-04-25T02:35:05.357Z,10.70
2023-04-25T02:37:33.064Z,10.80
2023-04-25T02:40:00.003Z,10.80
2023-04-25T02:42:27.824Z,10.90
2023-04-25T02:44:54.693Z,10.80
2023-04-25T02:47:21.866Z,10.80
2023-04-25T02:49:48.696Z,10.80
2023-04-25T02:52:15.468Z,10.80
2023-04-25T02:54:42.095Z,10.80
2023-04-25T02:57:08.800Z,10.70
2023-04-25T02:59:35.713Z,10.70
2023-04-25T03:02:02.719Z,10.70
2023-04-25T03:04:29.398Z,10.70
2023-04-25T03:06:56.045Z,10.60
2023-04-25T03:09:22.722Z,10.60
2023-04-25T03:11:49.323Z,10.60
2023-04-25T03:14:16.134Z,10.60
2023-04-25T03:16:42.740Z,10.60
2023-04-25T03:19:09.495Z,10.60
2023-04-25T03:21:36.882Z,10.60
2023-04-25T03:24:05.238Z,10.60
2023-04-25T03:26:31.993Z,10.50
2023-04-25T03:28:58.616Z,10.50
2023-04-25T03:31:25.870Z,10.40
2023-04-25T03:33:52.714Z,10.30
2023-04-25T03:36:19.488Z,10.30
2023-04-25T03:38:46.141Z,10.20
2023-04-25T03:41:12.726Z,10.00
2023-04-25T03:43:39.345Z,9.90
2023-04-25T03:46:06.057Z,9.90
2023-04-25T03:48:32.681Z,9.90
2023-04-25T03:50:59.349Z,9.80
2023-04-25T03:53:26.672Z,9.70
2023-04-25T03:55:53.310Z,9.70
2023-04-25T03:58:19.863Z,9.60
2023-04-25T04:00:46.612Z,9.60
2023-04-25T04:03:13.376Z,9.70
2023-04-25T04:05:41.626Z,9.70
2023-04-25T04:08:08.343Z,9.70
2023-04-25T04:10:35.637Z,9.70
2023-04-25T04:13:02.238Z,9.70
2023-04-25T04:15:28.820Z,9.70
2023-04-25T04:17:55.781Z,9.70
2023-04-25T04:20:22.535Z,9.70
2023-04-25T04:22:49.126Z,9.70
2023-04-25T04:25:15.830Z,9.70
2023-04-25T04:27:42.512Z,9.60
2023-04-25T04:30:09.506Z,9.40
2023-04-25T04:32:38.613Z,9.40
2023-04-25T04:35:07.499Z,9.50
2023-04-25T04:37:34.458Z,9.40
2023-04-25T04:40:05.993Z,9.40
2023-04-25T04:42:32.680Z,9.20
2023-04-25T04:44:59.583Z,9.10
2023-04-25T04:47:26.918Z,9.10
2023-04-25T04:49:53.597Z,9.10
2023-04-25T04:52:20.309Z,9.10
2023-04-25T04:54:46.927Z,9.00
2023-04-25T04:57:13.615Z,8.90
2023-04-25T04:59:40.214Z,8.90
2023-04-25T05:02:06.789Z,9.00
2023-04-25T05:04:33.482Z,8.90
2023-04-25T05:07:00.228Z,9.00
2023-04-25T05:09:27.652Z,9.00
2023-04-25T05:11:54.233Z,9.00
2023-04-25T05:14:20.912Z,9.00
2023-04-25T05:16:47.615Z,9.00
2023-04-25T05:19:14.253Z,8.90
2023-04-25T05:21:41.297Z,8.90
2023-04-25T05:24:09.150Z,8.90
2023-04-25T05:26:35.802Z,8.90
2023-04-25T05:29:02.418Z,9.00
2023-04-25T05:31:29.122Z,9.10
2023-04-25T05:33:55.875Z,9.10
2023-04-25T05:36:22.499Z,9.10
2023-04-25T05:38:49.130Z,9.20
2023-04-25T05:41:15.774Z,9.10
2023-04-25T05:43:48.224Z,9.10
2023-04-25T05:46:15.205Z,9.10
2023-04-25T05:48:41.837Z,9.10
2023-04-25T05:51:08.451Z,9.20
2023-04-25T05:53:35.292Z,9.20
2023-04-25T05:56:02.542Z,9.20
2023-04-25T05:58:29.858Z,9.20
2023-04-25T06:00:56.507Z,9.20
2023-04-25T06:03:23.722Z,9.30
2023-04-25T06:05:50.620Z,9.20
2023-04-25T06:08:17.262Z,9.30
2023-04-25T06:10:44.094Z,9.30
2023-04-25T06:13:10.805Z,9.30
2023-04-25T06:15:37.738Z,9.40
2023-04-25T06:18:04.550Z,9.30
2023-04-25T06:20:31.245Z,9.30
2023-04-25T06:22:58.149Z,9.30
2023-04-25T06:25:24.778Z,9.30
2023-04-25T06:27:51.412Z,9.30
2023-04-25T06:30:23.228Z,9.10
2023-04-25T06:32:49.942Z,9.00
2023-04-25T06:35:16.941Z,8.90
2023-04-25T06:37:44.835Z,9.00
2023-04-25T06:40:12.021Z,9.10
2023-04-25T06:42:38.673Z,9.10
2023-04-25T06:45:06.082Z,9.20
2023-04-25T06:47:32.754Z,9.20
2023-04-25T06:49:59.333Z,9.20
2023-04-25T06:52:25.967Z,9.20
2023-04-25T06:54:52.543Z,9.20
2023-04-25T06:57:19.343Z,9.30
2023-04-25T06:59:46.203Z,9.30
2023-04-25T07:02:12.916Z,9.30
2023-04-25T07:04:39.819Z,9.30
2023-04-25T07:07:06.464Z,9.40
2023-04-25T07:09:34.902Z,9.30
2023-04-25T07:12:04.473Z,9.20
2023-04-25T07:14:31.292Z,9.40
2023-04-25T07:16:58.085Z,9.20
2023-04-25T07:19:27.434Z,9.20
2023-04-25T07:21:54.251Z,9.30
2023-04-25T07:24:20.900Z,9.50
2023-04-25T07:26:47.538Z,9.60
2023-04-25T07:29:14.197Z,9.70
2023-04-25T07:31:42.606Z,9.60
2023-04-25T07:34:09.306Z,9.60
2023-04-25T07:36:35.907Z,9.60
2023-04-25T07:39:02.602Z,9.60
2023-04-25T07:41:29.340Z,9.50
2023-04-25T07:43:55.968Z,9.60
2023-04-25T07:46:22.727Z,9.40
2023-04-25T07:48:51.211Z,9.30
2023-04-25T07:51:20.777Z,9.20
2023-04-25T07:53:49.511Z,9.20
2023-04-25T07:56:17.121Z,9.20
2023-04-25T07:58:43.851Z,9.20
2023-04-25T08:01:10.652Z,9.10
2023-04-25T08:03:38.031Z,9.00
2023-04-25T08:06:07.639Z,9.00
2023-04-25T08:08:34.892Z,9.00
2023-04-25T08:11:01.532Z,9.00
2023-04-25T08:13:28.226Z,8.90
2023-04-25T08:15:55.674Z,8.90
2023-04-25T08:18:22.382Z,9.10
2023-04-25T08:20:49.014Z,9.10
2023-04-25T08:23:15.826Z,9.10
2023-04-25T08:25:42.461Z,9.20
2023-04-25T08:28:09.072Z,9.40
2023-04-25T08:30:35.750Z,9.40
2023-04-25T08:33:02.484Z,9.60
2023-04-25T08:35:29.229Z,9.70
2023-04-25T08:37:55.923Z,9.80
2023-04-25T08:40:29.781Z,9.90
2023-04-25T08:43:00.724Z,10.00
2023-04-25T08:45:31.353Z,10.10
2023-04-25T08:47:58.668Z,10.20
2023-04-25T08:50:27.203Z,10.40
2023-04-25T08:52:55.143Z,10.50
2023-04-25T08:55:22.766Z,10.60
2023-04-25T08:57:50.532Z,10.70
2023-04-25T09:00:17.892Z,10.90
2023-04-25T09:02:45.251Z,11.00
2023-04-25T09:05:15.047Z,11.10
2023-04-25T09:07:41.738Z,11.10
2023-04-25T09:10:08.773Z,11.00
2023-04-25T09:12:36.530Z,11.00
2023-04-25T09:15:20.513Z,11.00
2023-04-25T09:17:59.731Z,11.00
2023-04-25T09:20:26.903Z,10.90
2023-04-25T09:23:15.836Z,10.90
2023-04-25T09:25:44.279Z,10.90
2023-04-25T09:28:12.539Z,10.70
2023-04-25T09:30:39.294Z,10.70
2023-04-25T09:33:12.967Z,10.50
2023-04-25T09:35:44.428Z,10.40
2023-04-25T09:38:13.337Z,10.20
2023-04-25T09:40:45.654Z,10.10
2023-04-25T09:43:23.824Z,9.70
2023-04-25T09:45:52.746Z,9.70
2023-04-25T09:48:21.185Z,9.50
2023-04-25T09:51:06.786Z,9.50
2023-04-25T09:53:41.376Z,9.40
2023-04-25T09:56:10.341Z,9.60
2023-04-25T09:58:39.785Z,9.60
2023-04-25T10:01:10.985Z,9.60
2023-04-25T10:03:40.992Z,9.80
2023-04-25T10:06:12.908Z,9.80
2023-04-25T10:08:41.101Z,10.00
2023-04-25T10:11:09.554Z,10.10
2023-04-25T10:13:37.206Z,10.20
2023-04-25T10:16:05.653Z,10.30
2023-04-25T10:18:33.400Z,10.50
2023-04-25T10:21:02.500Z,10.60
2023-04-25T10:23:30.967Z,10.50
2023-04-25T10:25:58.387Z,10.60
2023-04-25T10:28:25.536Z,10.60
2023-04-25T10:31:06.361Z,10.70
2023-04-25T10:33:40.804Z,10.80
2023-04-25T10:36:15.839Z,11.00
2023-04-25T10:38:46.803Z,11.00
2023-04-25T10:41:14.420Z,11.10
2023-04-25T10:43:43.568Z,11.20
2023-04-25T10:46:33.002Z,11.10
2023-04-25T10:49:02.522Z,11.00
2023-04-25T10:51:47.409Z,10.90
2023-04-25T10:54:21.149Z,10.70
2023-04-25T10:56:50.515Z,10.50
2023-04-25T10:59:21.312Z,10.60
2023-04-25T11:01:52.177Z,10.50
2023-04-25T11:04:27.787Z,10.30
2023-04-25T11:07:06.518Z,10.20
2023-04-25T11:09:35.381Z,10.30
2023-04-25T11:12:02.275Z,10.30
2023-04-25T11:14:29.028Z,10.20
2023-04-25T11:17:00.719Z,10.20
2023-04-25T11:19:28.345Z,10.20
2023-04-25T11:21:59.299Z,10.20
2023-04-25T11:24:32.766Z,10.10
2023-04-25T11:27:00.271Z,10.20
2023-04-25T11:29:30.979Z,10.20
2023-04-25T11:32:01.914Z,10.30
2023-04-25T11:34:31.853Z,10.30
2023-04-25T11:36:58.956Z,10.50
2023-04-25T11:39:26.687Z,10.50
2023-04-25T11:41:53.691Z,10.50
2023-04-25T11:44:21.113Z,10.50
2023-04-25T11:46:48.347Z,10.60
2023-04-25T11:49:16.266Z,10.60
2023-04-25T11:51:44.535Z,10.70
2023-04-25T11:54:12.691Z,10.70
2023-04-25T11:56:43.186Z,10.60
2023-04-25T11:59:10.334Z,10.70
2023-04-25T12:01:39.331Z,10.60
2023-04-25T12:04:17.565Z,10.50
2023-04-25T12:06:48.387Z,10.50
2023-04-25T12:09:16.808Z,10.60
2023-04-25T12:11:54.634Z,10.60
2023-04-25T12:14:29.701Z,10.60
2023-04-25T12:16:58.756Z,10.60
2023-04-25T12:19:26.750Z,10.60
2023-04-25T12:21:58.818Z,10.60
2023-04-25T12:24:28.613Z,10.60
2023-04-25T12:27:04.573Z,10.80
2023-04-25T12:29:38.519Z,10.80
2023-04-25T12:32:16.126Z,10.90
2023-04-25T12:34:43.023Z,11.00
2023-04-25T12:37:09.953Z,11.10
2023-04-25T12:39:36.603Z,11.20
2023-04-25T12:42:04.310Z,11.10
2023-04-25T12:44:31.931Z,11.00
2023-04-25T12:46:58.764Z,11.20
2023-04-25T12:49:26.326Z,11.30
2023-04-25T12:51:52.915Z,11.50
2023-04-25T12:54:19.763Z,11.60
2023-04-25T12:56:47.175Z,11.70
2023-04-25T12:59:13.933Z,11.80
2023-04-25T13:01:40.709Z,11.90
2023-04-25T13:04:07.637Z,11.80
2023-04-25T13:06:34.368Z,11.70
2023-04-25T13:09:01.313Z,11.80
2023-04-25T13:11:28.064Z,11.80
2023-04-25T13:13:54.872Z,11.80
2023-04-25T13:16:22.364Z,11.90
2023-04-25T13:18:49.402Z,11.90
2023-04-25T13:21:16.078Z,12.00
2023-04-25T13:23:43.916Z,12.00
2023-04-25T13:26:11.127Z,11.90
2023-04-25T13:28:37.735Z,11.80
2023-04-25T13:31:04.384Z,11.90
2023-04-25T13:33:31.169Z,12.20
2023-04-25T13:35:58.430Z,12.30
2023-04-25T13:38:26.445Z,12.40
2023-04-25T13:40:53.722Z,12.40
2023-04-25T13:43:23.903Z,12.30
2023-04-25T13:45:51.232Z,12.40
2023-04-25T13:48:18.985Z,12.30
2023-04-25T13:50:46.069Z,12.50
2023-04-25T13:53:12.961Z,12.60
2023-04-25T13:55:39.762Z,12.60
2023-04-25T13:58:10.552Z,12.70
2023-04-25T14:00:40.828Z,12.70
2023-04-25T14:03:11.024Z,12.80
2023-04-25T14:05:39.074Z,12.90
2023-04-25T14:08:07.940Z,12.80
2023-04-25T14:10:36.203Z,12.60
2023-04-25T14:13:04.004Z,12.70
2023-04-25T14:15:34.896Z,12.80
2023-04-25T14:18:02.484Z,13.10
2023-04-25T14:20:29.470Z,13.20
2023-04-25T14:22:57.034Z,13.20
2023-04-25T14:25:24.286Z,13.30
2023-04-25T14:27:51.298Z,13.30
2023-04-25T14:30:19.236Z,13.30
2023-04-25T14:32:46.441Z,13.30
2023-04-25T14:35:13.829Z,13.30
2023-04-25T14:37:40.873Z,13.40
2023-04-25T14:40:11.556Z,13.40
2023-04-25T14:42:38.659Z,13.40
2023-04-25T14:45:07.560Z,13.50
2023-04-25T14:47:34.571Z,13.60
2023-04-25T14:50:02.511Z,13.50
2023-04-25T14:52:29.475Z,13.50
2023-04-25T14:54:56.326Z,13.40
2023-04-25T14:57:23.011Z,13.40
2023-04-25T14:59:49.687Z,13.30
2023-04-25T15:02:16.746Z,13.20
2023-04-25T15:04:43.597Z,13.30
2023-04-25T15:07:10.370Z,13.00
2023-04-25T15:09:37.025Z,12.50
2023-04-25T15:12:03.930Z,12.00
2023-04-25T15:14:30.640Z,11.60
2023-04-25T15:16:57.391Z,11.20
2023-04-25T15:19:24.293Z,10.80
2023-04-25T15:21:51.047Z,11.00
2023-04-25T15:24:17.898Z,11.10
2023-04-25T15:26:44.787Z,11.30
2023-04-25T15:29:11.509Z,11.50
2023-04-25T15:31:38.874Z,11.70
2023-04-25T15:34:06.153Z,11.80
2023-04-25T15:36:32.824Z,12.20
2023-04-25T15:38:59.446Z,12.40
2023-04-25T15:41:26.457Z,12.50
2023-04-25T15:43:54.815Z,12.50
2023-04-25T15:46:24.654Z,12.60
2023-04-25T15:48:51.310Z,12.70
2023-04-25T15:51:18.058Z,12.70
2023-04-25T15:53:45.215Z,12.80
2023-04-25T15:56:11.957Z,12.80
2023-04-25T15:58:38.600Z,12.90
2023-04-25T16:01:05.346Z,12.80
2023-04-25T16:03:34.526Z,12.90
2023-04-25T16:06:03.300Z,12.80
2023-04-25T16:08:35.238Z,12.80
2023-04-25T16:11:02.990Z,12.60
2023-04-25T16:13:30.141Z,12.30
2023-04-25T16:15:57.655Z,12.20
2023-04-25T16:18:24.548Z,12.20
2023-04-25T16:20:51.281Z,12.20
2023-04-25T16:23:18.631Z,12.10
2023-04-25T16:25:45.789Z,12.00
2023-04-25T16:28:12.563Z,11.90
2023-04-25T16:30:39.289Z,11.90
2023-04-25T16:33:05.956Z,11.90
2023-04-25T16:35:32.605Z,11.80
2023-04-25T16:37:59.705Z,11.90
2023-04-25T16:40:27.234Z,11.90
2023-04-25T16:42:55.871Z,11.90
2023-04-25T16:45:22.532Z,12.00
2023-04-25T16:47:49.134Z,11.90
2023-04-25T16:50:16.629Z,11.90
2023-04-25T16:52:44.619Z,11.90
2023-04-25T16:55:11.417Z,11.90
2023-04-25T16:57:38.226Z,11.90
2023-04-25T17:00:06.752Z,11.90
2023-04-25T17:02:33.554Z,11.80
2023-04-25T17:05:00.349Z,11.80
2023-04-25T17:07:27.848Z,11.80
2023-04-25T17:09:54.477Z,11.90
2023-04-25T17:12:21.646Z,11.50
2023-04-25T17:14:49.727Z,11.60
2023-04-25T17:17:18.588Z,11.60
2023-04-25T17:19:45.799Z,11.60
2023-04-25T17:22:12.769Z,11.70
2023-04-25T17:24:40.704Z,11.70
2023-04-25T17:27:07.534Z,11.70
2023-04-25T17:29:35.164Z,11.70
2023-04-25T17:32:02.060Z,11.70
2023-04-25T17:34:28.956Z,11.70
2023-04-25T17:36:55.639Z,11.80
2023-04-25T17:39:22.252Z,11.70
2023-04-25T17:41:48.994Z,11.60
2023-04-25T17:44:15.734Z,11.50
2023-04-25T17:46:42.468Z,11.40
2023-04-25T17:49:09.206Z,11.30
2023-04-25T17:51:35.847Z,11.20
2023-04-25T17:54:02.491Z,11.10
2023-04-25T17:56:29.153Z,11.10
2023-04-25T17:58:56.122Z,11.10
2023-04-25T18:01:22.878Z,11.00
2023-04-25T18:03:50.236Z,10.90
2023-04-25T18:06:17.904Z,10.80
2023-04-25T18:08:44.873Z,10.80
2023-04-25T18:11:12.088Z,10.70
2023-04-25T18:13:39.754Z,10.70
2023-04-25T18:16:07.092Z,10.60
2023-04-25T18:18:35.833Z,10.40
2023-04-25T18:21:05.209Z,10.30
2023-04-25T18:23:34.227Z,10.30
2023-04-25T18:26:02.246Z,10.20
2023-04-25T18:28:29.274Z,10.20
2023-04-25T18:30:56.637Z,10.20
2023-04-25T18:33:23.442Z,10.10
2023-04-25T18:35:58.775Z,10.10
2023-04-25T18:41:02.706Z,10.00
2023-04-25T18:43:32.675Z,10.00
2023-04-25T18:45:59.326Z,9.90
2023-04-25T18:48:26.218Z,9.90
2023-04-25T18:50:52.936Z,9.80
2023-04-25T18:53:19.518Z,9.80
2023-04-25T18:55:46.167Z,9.80
2023-04-25T18:58:13.159Z,9.80
2023-04-25T19:00:40.033Z,9.70
2023-04-25T19:03:07.564Z,9.60
2023-04-25T19:05:34.383Z,9.70
2023-04-25T19:08:01.018Z,9.60
2023-04-25T19:10:28.746Z,9.50
2023-04-25T19:12:55.830Z,9.60
2023-04-25T19:15:22.475Z,9.60
2023-04-25T19:17:49.300Z,9.50
2023-04-25T19:20:16.364Z,9.60
2023-04-25T19:22:43.144Z,9.60
2023-04-25T19:25:11.442Z,9.50
2023-04-25T19:27:39.062Z,9.60
2023-04-25T19:30:09.254Z,9.50
2023-04-25T19:32:36.405Z,9.50
2023-04-25T19:35:03.973Z,9.50
2023-04-25T19:37:31.065Z,9.40
2023-04-25T19:39:58.027Z,9.40
2023-04-25T19:42:24.719Z,9.40
2023-04-25T19:44:52.372Z,9.50
2023-04-25T19:47:18.975Z,9.40
2023-04-25T19:49:45.689Z,9.40
2023-04-25T19:52:15.730Z,9.40
2023-04-25T19:54:42.376Z,9.50
2023-04-25T19:57:09.424Z,9.40
2023-04-25T19:59:36.323Z,9.50
2023-04-25T20:02:04.677Z,9.50
2023-04-25T20:04:32.008Z,9.40
2023-04-25T20:06:59.089Z,9.50
2023-04-25T20:09:26.094Z,9.50
2023-04-25T20:11:53.341Z,9.40
2023-04-25T20:14:20.286Z,9.40
2023-04-25T20:16:47.757Z,9.30
2023-04-25T20:19:14.571Z,9.40
2023-04-25T20:21:41.336Z,9.20
2023-04-25T20:24:08.569Z,9.20
2023-04-25T20:26:35.594Z,9.10
2023-04-25T20:29:02.282Z,9.10
2023-04-25T20:31:32.344Z,9.10
2023-04-25T20:34:00.692Z,9.00
2023-04-25T20:36:27.423Z,9.10
2023-04-25T20:38:54.691Z,9.10
2023-04-25T20:41:21.931Z,9.10
2023-04-25T20:43:49.966Z,9.00
2023-04-25T20:46:17.613Z,9.10
2023-04-25T20:48:44.436Z,9.00
2023-04-25T20:51:11.886Z,9.00
2023-04-25T20:53:38.569Z,9.00
2023-04-25T20:56:06.409Z,9.10
2023-04-25T20:58:33.309Z,9.00
2023-04-25T21:01:00.064Z,9.10
2023-04-25T21:03:26.911Z,9.00
2023-04-25T21:05:53.737Z,9.00
2023-04-25T21:08:20.703Z,9.00
2023-04-25T21:10:47.318Z,9.00
2023-04-25T21:13:14.082Z,9.00
2023-04-25T21:15:40.771Z,9.00
2023-04-25T21:18:07.540Z,9.00
2023-04-25T21:20:34.199Z,9.00
2023-04-25T21:23:00.911Z,9.00
2023-04-25T21:25:33.879Z,9.00
2023-04-25T21:28:02.264Z,9.00
2023-04-25T21:30:29.267Z,8.90
2023-04-25T21:32:56.701Z,8.90
2023-04-25T21:35:23.538Z,8.80
2023-04-25T21:37:50.628Z,8.90
2023-04-25T21:40:17.649Z,8.90
2023-04-25T21:42:49.726Z,9.00
2023-04-25T21:45:16.342Z,9.00
2023-04-25T21:47:43.002Z,9.00
2023-04-25T21:50:10.070Z,8.90
2023-04-25T21:52:37.660Z,8.90
2023-04-25T21:55:04.743Z,8.90
2023-04-25T21:57:31.879Z,8.90
2023-04-25T21:59:59.000Z,8.90
2023-04-25T22:02:27.225Z,8.80
2023-04-25T22:04:53.992Z,8.80
2023-04-25T22:07:20.838Z,8.70
2023-04-25T22:09:54.968Z,8.60
2023-04-25T22:12:23.728Z,8.60
2023-04-25T22:14:50.610Z,8.50
2023-04-25T22:17:17.818Z,8.50
2023-04-25T22:19:45.227Z,8.60
2023-04-25T22:22:11.833Z,8.60
2023-04-25T22:24:38.721Z,8.60
2023-04-25T22:27:05.434Z,8.50
2023-04-25T22:29:32.144Z,8.40
2023-04-25T22:31:58.979Z,8.40
2023-04-25T22:34:26.037Z,8.30
2023-04-25T22:36:52.996Z,8.30
2023-04-25T22:39:19.591Z,8.20
2023-04-25T22:41:46.531Z,8.30
2023-04-25T22:44:13.473Z,8.20
2023-04-25T22:46:40.304Z,8.30
2023-04-25T22:49:06.891Z,8.30
2023-04-25T22:51:33.584Z,8.20
2023-04-25T22:54:01.380Z,8.20
2023-04-25T22:56:30.346Z,8.20
2023-04-25T22:58:57.186Z,8.10
2023-04-25T23:01:24.939Z,8.00
2023-04-25T23:03:51.838Z,8.00
2023-04-25T23:06:18.805Z,8.00
2023-04-25T23:08:45.493Z,8.00
2023-04-25T23:11:12.429Z,8.00
2023-04-25T23:13:39.361Z,8.00
2023-04-25T23:16:09.655Z,7.90
2023-04-25T23:18:37.382Z,7.90
2023-04-25T23:21:04.843Z,7.80
2023-04-25T23:23:31.668Z,7.80
2023-04-25T23:25:58.302Z,7.80
2023-04-25T23:28:25.000Z,7.80
2023-04-25T23:30:52.369Z,7.80
2023-04-25T23:33:19.081Z,7.70
2023-04-25T23:35:45.993Z,7.70
2023-04-25T23:38:13.569Z,7.60
2023-04-25T23:40:40.219Z,7.70
2023-04-25T23:43:06.897Z,7.70
2023-04-25T23:45:34.481Z,7.70
2023-04-25T23:48:02.652Z,7.60
2023-04-25T23:50:29.379Z,7.50
2023-04-25T23:52:55.987Z,7.50
2023-04-25T23:55:22.592Z,7.40
2023-04-25T23:57:49.282Z,7.40
